Time;durP1;ratioP1;P1;durP2;ratioP2;P2;SDS_P1;SDS_P2;PMS_P1;PMS_P2;Temp;Humidity;BMP_temperature;BMP_pressure;BME280_temperature;BME280_humidity;BME280_pressure;Samples;Min_cycle;Max_cycle;Signal;HPM_P1;HPM_P2
2022/12/18 00:02:21;;;;;;;4.47;4.07;;;;;;;8.31;67.76;95651.88;5042749;28;20243;-66
2022/12/18 00:04:47;;;;;;;4.07;3.73;;;;;;;8.26;67.16;95657.50;5036968;28;20182;-66
2022/12/18 00:07:12;;;;;;;4.37;3.97;;;;;;;8.22;67.64;95647.38;5040738;28;20178;-66
2022/12/18 00:09:38;;;;;;;4.80;4.33;;;;;;;8.21;67.80;95653.59;5041913;28;20300;-66
2022/12/18 00:12:03;;;;;;;5.13;4.60;;;;;;;7.86;67.96;95652.78;5043948;28;20228;-66
2022/12/18 00:14:29;;;;;;;5.73;5.13;;;;;;;7.90;68.22;95651.56;5036414;28;20241;-66
2022/12/18 00:16:54;;;;;;;5.00;4.60;;;;;;;8.10;67.43;95649.16;5046164;28;20229;-67
2022/12/18 00:19:20;;;;;;;5.23;4.73;;;;;;;8.16;66.98;95664.44;5042477;28;20248;-66
2022/12/18 00:21:45;;;;;;;5.43;4.93;;;;;;;8.06;67.51;95668.72;5056116;28;20237;-66
2022/12/18 00:24:11;;;;;;;5.80;5.30;;;;;;;8.08;67.41;95672.06;5041733;28;20282;-66
2022/12/18 00:26:38;;;;;;;6.20;5.20;;;;;;;8.16;66.98;95674.91;5038700;28;20209;-66
2022/12/18 00:29:16;;;;;;;5.80;5.20;;;;;;;8.08;67.36;95674.69;5047701;28;20244;-66
2022/12/18 00:31:42;;;;;;;5.17;4.70;;;;;;;8.00;67.22;95675.28;5041815;28;20268;-65
2022/12/18 00:34:11;;;;;;;5.67;5.17;;;;;;;7.93;67.49;95682.75;5048493;28;20174;-66
2022/12/18 00:36:37;;;;;;;5.57;5.03;;;;;;;7.99;67.02;95680.63;5045077;28;20229;-66
2022/12/18 00:39:04;;;;;;;6.30;5.70;;;;;;;7.89;67.24;95678.72;5048686;28;20218;-66
2022/12/18 00:44:16;;;;;;;6.40;5.80;;;;;;;7.89;67.49;95677.91;5046396;28;20255;-66
2022/12/18 00:46:43;;;;;;;5.93;5.43;;;;;;;7.67;68.15;95681.31;5048957;28;20178;-66
2022/12/18 00:49:09;;;;;;;6.23;5.63;;;;;;;7.75;68.16;95692.03;5046300;28;20258;-66
2022/12/18 00:51:34;;;;;;;6.87;6.17;;;;;;;7.82;67.42;95688.00;5048336;28;20251;-66
2022/12/18 00:54:00;;;;;;;7.13;6.43;;;;;;;7.70;68.13;95688.97;5039256;28;20222;-66
2022/12/18 00:56:25;;;;;;;7.63;6.93;;;;;;;7.74;67.70;95700.84;5038249;28;20237;-66
2022/12/18 00:58:51;;;;;;;7.10;6.40;;;;;;;7.89;66.93;95696.22;5038454;28;20275;-66
2022/12/18 01:01:17;;;;;;;6.50;5.90;;;;;;;7.85;67.28;95700.84;5049788;28;20205;-66
2022/12/18 01:03:44;;;;;;;6.47;5.87;;;;;;;7.98;66.55;95702.53;5044155;28;20214;-66
2022/12/18 01:06:12;;;;;;;7.43;6.67;;;;;;;7.97;66.86;95695.63;5036936;28;20226;-66
2022/12/18 01:08:38;;;;;;;8.40;6.73;;;;;;;8.03;66.37;95713.50;5051562;28;20357;-66
2022/12/18 01:11:12;;;;;;;7.13;6.53;;;;;;;7.94;66.50;95713.25;5041585;28;20225;-66
2022/12/18 01:13:39;;;;;;;7.30;6.70;;;;;;;7.67;66.56;95715.34;5048404;28;20195;-66
2022/12/18 01:16:05;;;;;;;8.47;7.67;;;;;;;7.64;67.02;95712.97;5053005;28;20186;-66
2022/12/18 01:18:30;;;;;;;7.70;6.90;;;;;;;7.61;66.84;95721.88;5057639;28;20287;-66
2022/12/18 01:20:56;;;;;;;7.37;6.67;;;;;;;7.63;67.19;95716.53;5041540;28;20241;-66
2022/12/18 01:23:21;;;;;;;7.30;6.10;;;;;;;7.53;67.02;95721.63;5057820;28;20236;-66
2022/12/18 01:25:46;;;;;;;6.90;6.30;;;;;;;7.33;66.96;95717.91;5050212;28;20185;-66
2022/12/18 01:28:12;;;;;;;6.40;5.80;;;;;;;7.43;66.79;95721.50;5050986;28;20177;-66
2022/12/18 01:30:37;;;;;;;7.13;6.43;;;;;;;7.28;66.79;95727.88;5041994;28;20359;-66
2022/12/18 01:33:06;;;;;;;7.33;6.63;;;;;;;7.34;66.55;95724.78;5052076;28;20241;-66
2022/12/18 01:35:32;;;;;;;7.73;6.17;;;;;;;7.50;65.90;95724.47;5042085;28;20225;-66
2022/12/18 01:37:57;;;;;;;6.93;6.20;;;;;;;7.52;65.82;95730.44;5052815;28;20237;-66
2022/12/18 01:40:23;;;;;;;7.50;6.70;;;;;;;7.29;66.29;95738.22;5044969;28;20193;-66
2022/12/18 01:42:52;;;;;;;7.77;6.97;;;;;;;7.33;66.27;95732.78;5049026;28;20225;-65
2022/12/18 01:45:18;;;;;;;7.67;6.83;;;;;;;7.40;65.80;95732.19;5041930;28;20697;-66
2022/12/18 01:47:47;;;;;;;7.27;6.57;;;;;;;7.16;66.38;95732.22;5030771;28;20337;-65
2022/12/18 01:50:14;;;;;;;8.00;7.20;;;;;;;7.17;66.65;95738.31;5015955;28;20226;-65
2022/12/18 01:52:42;;;;;;;7.87;7.07;;;;;;;7.24;66.24;95749.97;5029973;28;20213;-65
2022/12/18 01:55:10;;;;;;;7.70;7.00;;;;;;;7.24;65.99;95735.13;5033074;28;20415;-66
2022/12/18 01:57:37;;;;;;;7.90;7.07;;;;;;;7.28;65.85;95740.97;5026227;28;20238;-66
2022/12/18 02:00:13;;;;;;;8.80;7.37;;;;;;;7.07;66.38;95741.59;5027719;28;20226;-66
2022/12/18 02:02:40;;;;;;;7.57;6.77;;;;;;;6.86;67.26;95751.00;5038706;28;20251;-66
2022/12/18 02:05:07;;;;;;;7.70;6.87;;;;;;;6.90;66.94;95741.16;5050694;28;20226;-65
2022/12/18 02:07:53;;;;;;;8.07;7.00;;;;;;;6.69;67.54;95746.16;5041091;28;20228;-65
2022/12/18 02:10:31;;;;;;;7.03;6.33;;;;;;;6.71;67.75;95752.09;5040742;28;20213;-66
2022/12/18 02:13:09;;;;;;;7.53;6.83;;;;;;;6.75;67.48;95759.59;5050349;28;20256;-66
2022/12/18 02:15:46;;;;;;;7.50;6.63;;;;;;;6.91;67.33;95746.28;5035304;28;20236;-66
2022/12/18 02:18:21;;;;;;;8.50;6.93;;;;;;;6.92;67.37;95749.72;5042085;28;20329;-66
2022/12/18 02:21:00;;;;;;;7.67;6.87;;;;;;;7.05;66.67;95758.34;5039944;28;20237;-66
2022/12/18 02:23:38;;;;;;;7.33;6.70;;;;;;;7.07;66.83;95764.28;5043312;28;20230;-66
2022/12/18 02:26:12;;;;;;;7.70;6.90;;;;;;;7.12;66.62;95762.19;5045517;28;20244;-66
2022/12/18 02:28:44;;;;;;;8.23;6.63;;;;;;;7.24;65.88;95765.66;5041923;28;20213;-66
2022/12/18 02:31:14;;;;;;;8.93;7.10;;;;;;;7.13;65.90;95755.16;5041867;28;20189;-66
2022/12/18 02:33:41;;;;;;;7.60;6.80;;;;;;;7.24;65.65;95771.75;5043644;28;20225;-66
2022/12/18 02:36:09;;;;;;;7.93;7.13;;;;;;;7.25;65.35;95767.34;5050702;28;20312;-66
2022/12/18 02:38:36;;;;;;;7.37;6.60;;;;;;;6.89;66.71;95766.44;5031517;28;20233;-66
2022/12/18 02:41:03;;;;;;;7.80;7.07;;;;;;;6.88;66.31;95777.88;5023616;28;20264;-66
2022/12/18 02:43:29;;;;;;;8.17;7.27;;;;;;;6.94;66.12;95785.25;5014937;28;20537;-66
2022/12/18 02:45:58;;;;;;;6.70;6.00;;;;;;;6.99;66.26;95772.69;5020015;28;20226;-66
2022/12/18 02:48:28;;;;;;;7.57;6.77;;;;;;;7.03;65.93;95776.78;5021524;28;20218;-66
2022/12/18 02:51:33;;;;;;;6.40;5.80;;;;;;;7.14;65.48;95775.16;5025127;28;20218;-66
2022/12/18 02:54:20;;;;;;;6.33;5.70;;;;;;;6.95;65.56;95776.50;5018350;28;20252;-66
2022/12/18 02:56:51;;;;;;;6.80;6.20;;;;;;;6.77;66.30;95788.25;5025631;28;20348;-66
2022/12/18 02:59:24;;;;;;;6.77;6.07;;;;;;;6.97;65.58;95784.19;5036478;28;20238;-66
2022/12/18 03:02:26;;;;;;;7.80;7.03;;;;;;;6.80;66.45;95793.28;5027068;28;20262;-66
2022/12/18 03:05:07;;;;;;;7.33;6.63;;;;;;;6.79;66.30;95786.34;4994643;28;20234;-66
2022/12/18 03:07:56;;;;;;;7.37;6.63;;;;;;;6.67;66.50;95782.84;5011531;28;20183;-66
2022/12/18 03:10:30;;;;;;;6.77;6.07;;;;;;;6.68;66.58;95788.91;5010351;28;20191;-66
2022/12/18 03:13:05;;;;;;;7.03;6.37;;;;;;;6.66;66.65;95796.03;5003804;28;20267;-66
2022/12/18 03:15:39;;;;;;;9.03;6.53;;;;;;;6.74;65.84;95812.00;5008111;28;20226;-67
2022/12/18 03:18:12;;;;;;;7.20;6.50;;;;;;;6.66;66.21;95802.09;5007289;28;20284;-66
2022/12/18 03:20:41;;;;;;;7.87;6.83;;;;;;;6.75;65.80;95801.44;5010881;28;20230;-66
2022/12/18 03:23:16;;;;;;;7.47;6.63;;;;;;;6.73;66.06;95802.47;5025060;28;20234;-66
2022/12/18 03:25:44;;;;;;;6.77;6.17;;;;;;;6.85;65.74;95799.84;5010997;28;20252;-66
2022/12/18 03:28:14;;;;;;;7.17;6.43;;;;;;;6.53;66.29;95804.72;5012398;28;20191;-66
2022/12/18 03:30:43;;;;;;;6.93;6.33;;;;;;;6.51;66.49;95803.16;4995264;28;20310;-66
2022/12/18 03:33:17;;;;;;;7.53;6.83;;;;;;;6.62;66.00;95816.31;5008795;28;20233;-66
2022/12/18 03:35:43;;;;;;;7.83;6.80;;;;;;;6.66;65.46;95816.94;4999331;28;20230;-66
2022/12/18 03:38:10;;;;;;;7.93;6.90;;;;;;;6.29;66.11;95828.16;5012962;28;20316;-66
2022/12/18 03:40:55;;;;;;;6.97;6.37;;;;;;;6.30;66.64;95832.44;5005018;28;20246;-66
2022/12/18 03:43:37;;;;;;;7.47;6.77;;;;;;;6.40;66.40;95827.44;5036512;28;20208;-66
2022/12/18 03:46:14;;;;;;;7.73;6.70;;;;;;;6.65;65.92;95838.78;5055254;28;20253;-66
2022/12/18 03:48:54;;;;;;;7.33;6.53;;;;;;;6.63;65.38;95834.50;5031766;28;20756;-66
2022/12/18 03:51:35;;;;;;;7.20;6.53;;;;;;;6.55;65.35;95847.28;5018045;28;20247;-66
2022/12/18 03:54:03;;;;;;;7.37;6.57;;;;;;;6.60;65.36;95850.41;5017637;28;20249;-66
2022/12/18 03:56:33;;;;;;;7.50;6.67;;;;;;;6.58;64.84;95851.44;5016959;28;20249;-66
2022/12/18 03:59:00;;;;;;;6.83;6.17;;;;;;;6.55;64.48;95855.13;5030658;28;20229;-66
2022/12/18 04:01:38;;;;;;;7.70;6.70;;;;;;;6.69;64.07;95853.31;5038580;28;20185;-66
2022/12/18 04:04:12;;;;;;;7.07;6.37;;;;;;;6.52;65.11;95863.16;5037160;28;20221;-66
2022/12/18 04:06:40;;;;;;;6.70;6.10;;;;;;;6.43;65.21;95853.34;5029513;28;20241;-66
2022/12/18 04:09:06;;;;;;;7.67;6.87;;;;;;;6.60;65.22;95854.78;5026059;28;20312;-66
2022/12/18 04:11:31;;;;;;;6.77;6.17;;;;;;;6.35;65.12;95863.47;5025790;28;20266;-66
2022/12/18 04:13:58;;;;;;;6.97;6.30;;;;;;;6.37;65.47;95861.59;5027760;28;20284;-66
2022/12/18 04:16:25;;;;;;;7.53;6.73;;;;;;;6.23;65.91;95866.91;5043841;28;20190;-66
2022/12/18 04:18:50;;;;;;;9.40;6.77;;;;;;;6.22;65.99;95875.69;5052628;28;20251;-66
2022/12/18 04:21:16;;;;;;;7.40;6.70;;;;;;;6.55;64.39;95873.41;5051867;28;20221;-66
2022/12/18 04:23:41;;;;;;;7.67;6.87;;;;;;;6.30;64.92;95876.00;5049173;28;20234;-66
2022/12/18 04:26:07;;;;;;;7.40;6.63;;;;;;;6.22;65.29;95876.53;5038748;28;20221;-66
2022/12/18 04:28:32;;;;;;;8.17;7.37;;;;;;;6.23;65.35;95883.44;5048572;28;20186;-66
2022/12/18 04:30:57;;;;;;;8.10;7.30;;;;;;;6.38;64.44;95878.94;5053042;28;20299;-66
2022/12/18 04:33:23;;;;;;;8.77;7.07;;;;;;;6.28;64.16;95875.28;5045767;28;20213;-66
2022/12/18 04:35:48;;;;;;;8.87;7.80;;;;;;;6.07;65.21;95888.88;5049656;28;20225;-66
2022/12/18 04:38:14;;;;;;;8.17;7.37;;;;;;;6.00;65.18;95900.66;5041472;28;20230;-66
2022/12/18 04:40:40;;;;;;;8.40;7.60;;;;;;;6.28;64.37;95899.66;5039685;28;20182;-66
2022/12/18 04:43:06;;;;;;;8.70;7.80;;;;;;;6.17;64.25;95904.72;5045417;28;20206;-66
2022/12/18 04:45:32;;;;;;;7.90;7.10;;;;;;;6.08;64.19;95910.59;5045241;28;20225;-66
2022/12/18 04:47:58;;;;;;;9.03;7.57;;;;;;;6.14;63.60;95918.00;5043317;28;20240;-66
2022/12/18 04:50:24;;;;;;;9.03;8.13;;;;;;;6.03;63.49;95910.88;5047629;28;20296;-66
2022/12/18 04:52:49;;;;;;;9.03;8.13;;;;;;;6.02;63.22;95922.28;5046890;28;20256;-68
2022/12/18 04:55:15;;;;;;;8.73;7.90;;;;;;;6.01;63.48;95914.53;5027655;28;20194;-67
2022/12/18 04:57:40;;;;;;;9.03;8.03;;;;;;;5.89;63.14;95922.22;5042627;28;20226;-67
2022/12/18 05:00:07;;;;;;;9.83;8.87;;;;;;;5.90;63.12;95939.53;5044971;28;20217;-66
2022/12/18 05:02:32;;;;;;;10.87;9.13;;;;;;;5.73;62.73;95932.81;5052238;28;20240;-66
2022/12/18 05:04:58;;;;;;;10.27;8.73;;;;;;;5.98;62.21;95933.84;5044045;28;20225;-65
2022/12/18 05:07:23;;;;;;;9.63;8.73;;;;;;;5.75;62.78;95930.94;5048445;28;20178;-66
2022/12/18 05:09:49;;;;;;;9.73;8.37;;;;;;;5.66;62.62;95931.53;5045773;28;20237;-66
2022/12/18 05:12:14;;;;;;;10.33;8.63;;;;;;;5.55;63.19;95939.22;5042979;28;20226;-66
2022/12/18 05:14:40;;;;;;;10.03;8.90;;;;;;;5.65;63.78;95939.47;5045115;28;20312;-66
2022/12/18 05:17:05;;;;;;;9.70;8.70;;;;;;;5.57;63.36;95936.53;5041621;28;20400;-66
2022/12/18 05:19:31;;;;;;;9.90;8.90;;;;;;;5.56;63.65;95958.31;5043355;28;20189;-66
2022/12/18 05:21:57;;;;;;;9.97;9.03;;;;;;;5.65;63.30;95960.34;5047778;28;20225;-66
2022/12/18 05:24:22;;;;;;;10.67;9.57;;;;;;;5.56;63.66;95959.16;5027043;28;20218;-66
2022/12/18 05:26:48;;;;;;;9.93;8.97;;;;;;;5.58;63.05;95962.50;5035588;28;20225;-66
2022/12/18 05:29:13;;;;;;;10.73;9.57;;;;;;;5.73;62.91;95964.13;5042094;28;20226;-66
2022/12/18 05:31:39;;;;;;;9.93;8.93;;;;;;;5.88;62.18;95969.28;5055230;28;20485;-66
2022/12/18 05:34:05;;;;;;;10.77;9.67;;;;;;;5.79;61.92;95982.94;5050562;28;20188;-65
2022/12/18 05:36:30;;;;;;;11.83;10.60;;;;;;;5.74;62.38;95976.22;5050371;28;20226;-66
2022/12/18 05:38:56;;;;;;;11.60;10.17;;;;;;;5.85;62.01;95992.97;5043858;28;20276;-66
2022/12/18 05:41:21;;;;;;;10.93;9.37;;;;;;;5.83;61.41;95985.25;5042483;28;20222;-64
2022/12/18 05:43:47;;;;;;;11.83;9.60;;;;;;;5.52;62.52;95987.19;5046242;28;20197;-65
2022/12/18 05:46:15;;;;;;;11.20;9.70;;;;;;;5.68;62.61;95997.50;5043502;28;20186;-65
2022/12/18 05:48:41;;;;;;;10.07;8.90;;;;;;;5.67;62.43;95988.00;5047508;28;20226;-65
2022/12/18 05:51:10;;;;;;;9.73;8.73;;;;;;;5.79;61.45;95990.78;5050703;28;20221;-65
2022/12/18 05:53:36;;;;;;;11.23;10.03;;;;;;;5.45;62.23;95987.69;5042446;28;20281;-65
2022/12/18 05:56:05;;;;;;;11.83;10.23;;;;;;;5.61;61.45;95990.16;5046303;28;20218;-65
2022/12/18 05:58:31;;;;;;;13.00;10.87;;;;;;;5.39;62.29;95990.69;5049125;28;20232;-65
2022/12/18 06:00:57;;;;;;;10.90;9.53;;;;;;;5.40;62.38;96000.19;5047700;28;20233;-65
2022/12/18 06:03:23;;;;;;;11.57;10.37;;;;;;;5.59;61.48;95999.88;5060821;28;20225;-65
2022/12/18 06:05:48;;;;;;;11.00;9.90;;;;;;;5.36;62.36;96011.75;5037926;28;20313;-65
2022/12/18 06:08:14;;;;;;;12.90;10.67;;;;;;;5.38;62.07;96000.28;5043431;28;20229;-65
2022/12/18 06:10:40;;;;;;;14.13;10.97;;;;;;;5.28;62.54;96005.22;5039614;28;20190;-66
2022/12/18 06:13:06;;;;;;;12.73;10.60;;;;;;;5.25;62.76;96005.41;5047086;28;20272;-66
2022/12/18 06:15:32;;;;;;;11.10;10.00;;;;;;;5.52;61.84;96007.25;5037846;28;20325;-66
2022/12/18 06:17:57;;;;;;;11.90;9.73;;;;;;;5.40;62.10;96002.78;5043548;28;20233;-66
2022/12/18 06:20:23;;;;;;;12.93;11.10;;;;;;;5.28;62.46;96015.66;5036539;28;20238;-66
2022/12/18 06:22:48;;;;;;;11.63;10.43;;;;;;;5.52;61.44;96012.47;5032240;28;20320;-66
2022/12/18 06:25:14;;;;;;;11.97;10.43;;;;;;;5.34;62.16;96014.44;5049805;28;20193;-66
2022/12/18 06:27:40;;;;;;;11.90;10.70;;;;;;;5.31;63.14;96015.47;5040542;28;20233;-67
2022/12/18 06:30:06;;;;;;;13.13;11.73;;;;;;;5.33;62.79;96012.78;5046384;28;20225;-66
2022/12/18 06:32:32;;;;;;;12.00;10.70;;;;;;;5.46;62.34;96023.28;5055615;28;20221;-66
2022/12/18 06:34:57;;;;;;;11.83;10.63;;;;;;;5.35;62.65;96029.16;5063606;28;20218;-66
2022/12/18 06:37:25;;;;;;;13.40;11.67;;;;;;;5.36;62.52;96030.00;5037785;28;20206;-66
2022/12/18 06:39:56;;;;;;;12.87;10.80;;;;;;;5.14;63.19;96031.31;5049783;28;20217;-66
2022/12/18 06:42:21;;;;;;;13.30;11.10;;;;;;;5.34;62.20;96039.69;5038928;28;20236;-66
2022/12/18 06:44:47;;;;;;;12.50;11.20;;;;;;;5.34;62.54;96040.50;5040133;28;20301;-66
2022/12/18 06:47:12;;;;;;;13.57;11.77;;;;;;;5.43;62.68;96039.13;5037543;28;20313;-66
2022/12/18 06:49:38;;;;;;;12.60;11.00;;;;;;;5.44;61.97;96054.66;5047077;28;20196;-66
2022/12/18 06:52:03;;;;;;;12.43;11.13;;;;;;;5.31;61.68;96049.38;5040487;28;20189;-66
2022/12/18 06:54:29;;;;;;;12.77;11.10;;;;;;;5.36;61.70;96059.53;5045616;28;20294;-66
2022/12/18 06:56:54;;;;;;;13.80;11.43;;;;;;;5.51;60.61;96052.53;5046282;28;20233;-67
2022/12/18 06:59:20;;;;;;;14.23;11.70;;;;;;;5.51;60.68;96065.59;5042879;28;20248;-66
2022/12/18 07:01:45;;;;;;;12.43;11.13;;;;;;;5.44;60.50;96059.06;5042009;28;20182;-66
2022/12/18 07:04:11;;;;;;;15.47;11.37;;;;;;;5.51;59.98;96061.19;5038851;28;20200;-66
2022/12/18 07:06:36;;;;;;;13.07;11.27;;;;;;;5.40;60.11;96063.63;5018195;28;20280;-67
2022/12/18 07:09:02;;;;;;;11.93;10.73;;;;;;;5.31;60.06;96062.41;5026976;28;20230;-67
2022/12/18 07:11:27;;;;;;;12.43;10.87;;;;;;;5.24;61.01;96073.34;5028844;28;20225;-67
2022/12/18 07:13:54;;;;;;;13.30;11.90;;;;;;;5.38;60.92;96062.88;5035456;28;20226;-67
2022/12/18 07:16:22;;;;;;;13.73;11.13;;;;;;;5.33;61.12;96062.31;5025596;28;20198;-67
2022/12/18 07:18:48;;;;;;;13.07;11.60;;;;;;;5.09;61.67;96069.88;5047590;28;20237;-67
2022/12/18 07:21:15;;;;;;;14.00;11.90;;;;;;;5.21;61.94;96071.75;5024762;28;20222;-67
2022/12/18 07:23:41;;;;;;;13.70;11.30;;;;;;;5.42;60.68;96068.75;5032879;28;20230;-67
2022/12/18 07:26:12;;;;;;;12.90;11.50;;;;;;;5.50;60.78;96071.72;5038460;28;20308;-67
2022/12/18 07:28:38;;;;;;;13.77;12.03;;;;;;;5.65;60.60;96075.16;5029359;28;20182;-67
2022/12/18 07:31:14;;;;;;;14.73;12.03;;;;;;;5.52;60.49;96081.13;5036925;28;20213;-67
2022/12/18 07:33:39;;;;;;;13.80;12.20;;;;;;;5.57;60.68;96083.44;5033964;28;20232;-67
2022/12/18 07:36:07;;;;;;;12.83;11.53;;;;;;;5.63;60.64;96088.28;5036792;28;20222;-67
2022/12/18 07:38:34;;;;;;;13.30;11.90;;;;;;;5.65;60.26;96082.97;5031355;28;20309;-67
2022/12/18 07:41:11;;;;;;;15.60;13.57;;;;;;;5.55;60.15;96090.53;5039067;28;20249;-67
2022/12/18 07:43:37;;;;;;;14.83;13.10;;;;;;;5.67;59.82;96088.94;5014161;28;20187;-67
2022/12/18 07:46:03;;;;;;;13.60;12.20;;;;;;;5.63;59.65;96095.28;5017052;28;20221;-67
2022/12/18 07:48:29;;;;;;;14.07;12.63;;;;;;;5.27;60.57;96099.22;5026700;28;20226;-67
2022/12/18 07:51:02;;;;;;;16.57;13.33;;;;;;;5.33;60.69;96105.84;5019023;28;20227;-67
2022/12/18 07:53:28;;;;;;;15.30;13.60;;;;;;;5.38;60.65;96101.19;5016050;28;20230;-67
2022/12/18 07:55:57;;;;;;;15.47;13.60;;;;;;;5.37;60.71;96107.31;5019729;28;20295;-66
2022/12/18 07:58:23;;;;;;;16.23;14.43;;;;;;;5.27;61.33;96110.47;5028247;28;20276;-67
2022/12/18 08:00:49;;;;;;;16.47;14.67;;;;;;;5.34;60.79;96117.94;5019199;28;20229;-67
2022/12/18 08:03:14;;;;;;;16.13;14.43;;;;;;;5.35;60.85;96114.41;5016343;28;20313;-66
2022/12/18 08:05:39;;;;;;;15.53;13.67;;;;;;;5.23;61.24;96115.97;5026681;28;20233;-66
2022/12/18 08:08:05;;;;;;;18.70;15.20;;;;;;;5.08;61.30;96130.78;5045668;28;20300;-66
2022/12/18 08:10:30;;;;;;;15.90;14.20;;;;;;;5.03;61.48;96125.81;5036167;28;20197;-67
2022/12/18 08:12:56;;;;;;;16.37;14.50;;;;;;;5.23;61.13;96124.63;5037077;28;20214;-67
2022/12/18 08:15:21;;;;;;;17.33;15.50;;;;;;;5.19;61.64;96137.97;5047687;28;20228;-67
2022/12/18 08:17:47;;;;;;;17.77;14.80;;;;;;;5.11;61.76;96148.00;5036783;28;20237;-67
2022/12/18 08:20:14;;;;;;;16.47;14.73;;;;;;;5.24;60.81;96160.22;5038554;28;20218;-66
2022/12/18 08:22:43;;;;;;;17.47;15.67;;;;;;;5.04;60.88;96152.72;5039602;28;20226;-66
2022/12/18 08:25:08;;;;;;;18.23;16.03;;;;;;;4.94;61.97;96156.78;5042796;28;20190;-66
2022/12/18 08:27:34;;;;;;;18.30;16.13;;;;;;;5.02;61.22;96160.63;5046635;28;20279;-66
2022/12/18 08:30:00;;;;;;;17.30;15.40;;;;;;;5.10;60.97;96162.78;5041722;28;20221;-66
2022/12/18 08:32:27;;;;;;;18.97;16.27;;;;;;;4.97;61.45;96162.69;5045982;28;20228;-66
2022/12/18 08:34:53;;;;;;;19.30;15.83;;;;;;;4.89;61.77;96167.47;5046400;28;20221;-66
2022/12/18 08:37:18;;;;;;;17.33;15.50;;;;;;;4.97;61.07;96167.91;5046096;28;20221;-66
2022/12/18 08:39:44;;;;;;;18.30;15.87;;;;;;;4.98;61.32;96168.72;5037245;28;20218;-66
2022/12/18 08:44:54;;;;;;;18.00;14.23;;;;;;;5.03;60.94;96158.88;5036427;28;20335;-66
2022/12/18 08:47:19;;;;;;;17.33;15.37;;;;;;;5.07;60.54;96168.19;5046365;28;20240;-66
2022/12/18 08:49:45;;;;;;;17.60;14.67;;;;;;;4.96;60.95;96171.41;5042781;28;20352;-66
2022/12/18 08:52:10;;;;;;;17.40;14.30;;;;;;;4.84;61.15;96179.97;5038434;28;20181;-66
2022/12/18 08:54:36;;;;;;;19.13;16.17;;;;;;;4.95;60.73;96184.56;5044108;28;20271;-66
2022/12/18 08:57:02;;;;;;;16.83;14.57;;;;;;;5.16;60.21;96178.09;5021900;28;20294;-66
2022/12/18 08:59:29;;;;;;;17.90;15.83;;;;;;;5.25;59.91;96172.31;5022731;28;20218;-66
2022/12/18 09:01:55;;;;;;;17.20;14.53;;;;;;;5.18;59.79;96162.34;5024236;28;20225;-66
2022/12/18 09:04:20;;;;;;;17.03;14.67;;;;;;;5.26;59.15;96167.94;5029653;28;20312;-66
2022/12/18 09:06:46;;;;;;;15.73;13.70;;;;;;;5.36;58.32;96161.25;5029532;28;20218;-66
2022/12/18 09:09:11;;;;;;;16.60;14.70;;;;;;;5.40;58.43;96164.50;5020402;28;20229;-66
2022/12/18 09:11:37;;;;;;;16.70;14.73;;;;;;;5.22;58.87;96161.25;5016877;28;20272;-66
2022/12/18 09:14:03;;;;;;;17.90;15.70;;;;;;;5.26;58.93;96147.91;5014605;28;20298;-66
2022/12/18 09:16:29;;;;;;;17.13;15.07;;;;;;;5.52;57.99;96156.78;5024893;28;20193;-66
2022/12/18 09:18:59;;;;;;;18.63;16.03;;;;;;;5.44;58.48;96166.00;5036617;28;20226;-66
2022/12/18 09:21:27;;;;;;;17.33;15.00;;;;;;;5.49;58.50;96159.56;5022599;28;20231;-65
2022/12/18 09:23:54;;;;;;;17.57;15.53;;;;;;;5.29;58.61;96163.41;5046026;28;20233;-66
2022/12/18 09:26:23;;;;;;;18.33;14.50;;;;;;;5.26;58.76;96167.94;5036953;28;20226;-67
2022/12/18 09:28:49;;;;;;;16.43;14.23;;;;;;;5.28;58.96;96169.53;5021486;28;20262;-67
2022/12/18 09:31:15;;;;;;;18.43;15.07;;;;;;;5.35;58.52;96171.78;5041830;28;20285;-67
2022/12/18 09:33:40;;;;;;;16.30;13.90;;;;;;;5.23;58.55;96173.34;5051839;28;20239;-67
2022/12/18 09:36:09;;;;;;;15.50;13.87;;;;;;;5.29;57.82;96178.19;5050469;28;20217;-67
2022/12/18 09:38:35;;;;;;;16.37;13.67;;;;;;;5.21;57.67;96173.44;5040679;28;20244;-67
2022/12/18 09:41:05;;;;;;;16.40;13.53;;;;;;;5.18;57.43;96172.75;5050160;28;20256;-67
2022/12/18 09:43:42;;;;;;;14.73;12.97;;;;;;;5.09;57.22;96167.16;5050210;28;20199;-67
2022/12/18 09:46:19;;;;;;;15.33;12.57;;;;;;;5.17;56.67;96182.34;5024123;28;20222;-67
2022/12/18 09:48:49;;;;;;;16.17;13.23;;;;;;;5.03;57.19;96164.09;5036604;28;20246;-67
2022/12/18 09:51:19;;;;;;;15.77;12.93;;;;;;;5.35;56.62;96167.41;5031634;28;20225;-67
2022/12/18 09:53:51;;;;;;;16.47;13.03;;;;;;;5.29;56.76;96168.63;5031565;28;20268;-67
2022/12/18 09:56:22;;;;;;;14.30;12.77;;;;;;;5.49;56.75;96163.97;5018221;28;20222;-67
2022/12/18 09:59:17;;;;;;;16.67;13.00;;;;;;;5.70;56.00;96162.66;5026278;28;20207;-67
2022/12/18 10:01:43;;;;;;;15.83;13.80;;;;;;;5.87;56.32;96166.00;5030302;28;20316;-67
2022/12/18 10:04:09;;;;;;;14.23;12.73;;;;;;;6.07;54.95;96165.63;5019011;28;20218;-67
2022/12/18 10:06:38;;;;;;;15.23;12.53;;;;;;;5.69;56.02;96165.34;5020700;28;20234;-67
2022/12/18 10:09:16;;;;;;;16.40;12.53;;;;;;;5.63;54.83;96163.94;5023598;28;20229;-67
2022/12/18 10:12:10;;;;;;;14.93;12.87;;;;;;;5.80;55.14;96162.06;5031584;28;20226;-67
2022/12/18 10:14:44;;;;;;;15.83;13.20;;;;;;;5.94;54.73;96157.72;5017811;28;20227;-67
2022/12/18 10:17:19;;;;;;;15.53;13.23;;;;;;;5.57;55.47;96166.94;5022783;28;20332;-67
2022/12/18 10:20:02;;;;;;;15.83;13.17;;;;;;;5.74;54.74;96174.56;5017837;28;20235;-67
2022/12/18 10:22:40;;;;;;;16.83;13.57;;;;;;;5.80;54.99;96173.38;5040721;28;20309;-67
2022/12/18 10:25:46;;;;;;;18.63;13.57;;;;;;;5.96;55.26;96168.91;5042081;28;20285;-66
2022/12/18 10:28:14;;;;;;;17.13;13.27;;;;;;;5.87;55.23;96182.50;4989891;28;20223;-67
2022/12/18 10:30:41;;;;;;;15.40;13.80;;;;;;;5.88;54.98;96172.88;4993932;28;20247;-67
2022/12/18 10:33:14;;;;;;;16.20;13.77;;;;;;;5.86;54.70;96174.78;4993690;28;20308;-66
2022/12/18 10:35:41;;;;;;;17.57;13.80;;;;;;;5.73;54.83;96183.34;5007254;28;20226;-66
2022/12/18 10:38:12;;;;;;;14.80;12.80;;;;;;;5.63;55.03;96173.56;4994644;28;20230;-66
2022/12/18 10:40:57;;;;;;;16.43;13.23;;;;;;;5.53;55.35;96170.66;5008028;28;20188;-66
2022/12/18 10:43:35;;;;;;;13.60;12.20;;;;;;;5.70;54.97;96177.47;5008204;28;20199;-66
2022/12/18 10:46:08;;;;;;;14.90;13.10;;;;;;;5.67;55.31;96165.47;4988703;28;20220;-67
2022/12/18 10:48:49;;;;;;;14.67;12.87;;;;;;;5.73;55.43;96164.25;4986699;28;20232;-66
2022/12/18 10:51:27;;;;;;;15.47;12.90;;;;;;;5.86;55.14;96169.56;4975620;28;20227;-67
2022/12/18 10:54:04;;;;;;;17.23;14.03;;;;;;;5.56;56.63;96167.03;4982924;28;20243;-67
2022/12/18 10:56:33;;;;;;;16.83;14.50;;;;;;;5.65;56.02;96158.66;4971221;28;20255;-67
2022/12/18 10:59:02;;;;;;;16.37;13.80;;;;;;;5.57;55.96;96166.94;5015773;28;20226;-67
2022/12/18 11:01:45;;;;;;;14.30;12.23;;;;;;;5.51;55.66;96159.50;5019103;28;20193;-67
2022/12/18 11:04:17;;;;;;;15.03;13.43;;;;;;;5.59;55.20;96154.66;5024590;28;20214;-66
2022/12/18 11:06:55;;;;;;;16.27;13.30;;;;;;;5.47;55.57;96160.59;5018871;28;20326;-66
2022/12/18 11:09:27;;;;;;;15.77;13.77;;;;;;;5.53;55.09;96158.47;5032412;28;20229;-66
2022/12/18 11:11:55;;;;;;;15.83;14.00;;;;;;;5.58;54.87;96162.56;5033639;28;20269;-66
2022/12/18 11:14:25;;;;;;;14.27;12.27;;;;;;;5.66;53.83;96161.16;5023478;28;20218;-66
2022/12/18 11:16:52;;;;;;;16.47;12.63;;;;;;;5.70;53.79;96156.59;5023632;28;20202;-65
2022/12/18 11:19:21;;;;;;;15.17;12.43;;;;;;;5.65;53.51;96167.31;5028460;28;20245;-66
2022/12/18 11:21:47;;;;;;;14.33;12.40;;;;;;;5.48;53.86;96163.13;5021482;28;20285;-66
2022/12/18 11:24:35;;;;;;;16.10;12.50;;;;;;;5.48;53.84;96173.56;5022871;28;20313;-66
2022/12/18 11:27:15;;;;;;;13.87;11.40;;;;;;;5.67;53.10;96167.22;5025677;28;20230;-66
2022/12/18 11:29:40;;;;;;;15.20;12.80;;;;;;;5.63;53.40;96166.56;5026371;28;20336;-66
2022/12/18 11:32:24;;;;;;;13.77;12.03;;;;;;;5.72;52.60;96175.59;5018976;28;20262;-65
2022/12/18 11:35:12;;;;;;;14.23;11.93;;;;;;;5.52;53.38;96158.56;5029007;28;20288;-66
2022/12/18 11:37:42;;;;;;;13.93;11.67;;;;;;;5.53;53.06;96174.13;5043634;28;20206;-66
2022/12/18 11:40:22;;;;;;;15.23;12.20;;;;;;;5.58;53.46;96166.00;5037416;28;20182;-66
2022/12/18 11:42:52;;;;;;;14.50;12.07;;;;;;;5.56;53.54;96175.72;5040416;28;20221;-67
2022/12/18 11:45:17;;;;;;;15.37;12.00;;;;;;;5.51;53.66;96167.31;5040068;28;20420;-66
2022/12/18 11:47:56;;;;;;;15.77;11.97;;;;;;;5.70;53.35;96173.09;5035414;28;20225;-66
2022/12/18 11:50:52;;;;;;;15.57;12.93;;;;;;;5.61;54.08;96178.03;5041165;28;20221;-66